Time;durP1;ratioP1;P1;durP2;ratioP2;P2;SDS_P1;SDS_P2;PMS_P1;PMS_P2;Temp;Humidity;BMP_temperature;BMP_pressure;BME280_temperature;BME280_humidity;BME280_pressure;Samples;Min_cycle;Max_cycle;Signal;HPM_P1;HPM_P2
2022/01/31 00:00:50;;;;;;;5.60;1.73;;;18.60;37.00;;;;;;5074500;28;20072;-82
2022/01/31 00:03:16;;;;;;;3.97;1.17;;;18.70;36.90;;;;;;5074194;28;20415;-82
2022/01/31 00:05:41;;;;;;;4.72;1.45;;;18.70;36.90;;;;;;5074290;28;20033;-81
2022/01/31 00:08:07;;;;;;;5.43;1.45;;;18.70;36.90;;;;;;5055671;28;20063;-82
2022/01/31 00:10:36;;;;;;;5.45;2.28;;;18.80;36.80;;;;;;5056167;28;20037;-82
2022/01/31 00:13:09;;;;;;;5.57;1.75;;;18.80;36.70;;;;;;5056503;28;20041;-83
2022/01/31 00:15:40;;;;;;;4.85;1.48;;;18.80;36.60;;;;;;5073991;28;20049;-84
2022/01/31 00:18:06;;;;;;;5.60;1.52;;;18.90;36.60;;;;;;5056074;28;20044;-82
2022/01/31 00:20:32;;;;;;;6.43;1.50;;;18.90;36.50;;;;;;5061894;28;20059;-82
2022/01/31 00:22:58;;;;;;;3.65;1.27;;;18.90;36.50;;;;;;5094221;28;20044;-82
2022/01/31 00:25:24;;;;;;;4.25;1.42;;;18.90;36.40;;;;;;5075953;28;20488;-81
2022/01/31 00:27:49;;;;;;;4.03;1.35;;;19.00;36.40;;;;;;5075933;28;20028;-82
2022/01/31 00:30:16;;;;;;;4.80;1.27;;;19.00;36.30;;;;;;5094130;28;20047;-82
2022/01/31 00:32:42;;;;;;;5.38;0.98;;;19.00;36.30;;;;;;5075815;28;20075;-84
2022/01/31 00:35:09;;;;;;;4.85;1.30;;;19.10;36.30;;;;;;5093993;28;20513;-83
2022/01/31 00:37:35;;;;;;;4.75;1.60;;;19.10;36.30;;;;;;5075880;28;20043;-83
2022/01/31 00:40:03;;;;;;;4.82;1.55;;;19.10;36.30;;;;;;5094019;28;20040;-83
2022/01/31 00:42:30;;;;;;;5.55;1.00;;;19.20;36.30;;;;;;5075589;28;20109;-80
2022/01/31 00:45:07;;;;;;;4.05;1.33;;;19.20;36.10;;;;;;5093835;28;20036;-83
2022/01/31 00:47:33;;;;;;;2.95;1.10;;;19.20;36.10;;;;;;5074913;28;20036;-81
2022/01/31 00:50:06;;;;;;;5.82;1.63;;;19.20;36.00;;;;;;5075647;28;20040;-83
2022/01/31 00:52:33;;;;;;;5.47;1.55;;;19.30;36.00;;;;;;5075536;28;20052;-83
2022/01/31 00:55:01;;;;;;;6.35;1.17;;;19.30;35.90;;;;;;5075711;28;20044;-83
2022/01/31 00:57:27;;;;;;;3.75;1.02;;;19.30;35.80;;;;;;5075452;28;20206;-83
2022/01/31 00:59:53;;;;;;;7.40;1.67;;;19.40;36.60;;;;;;5075685;28;20130;-81
2022/01/31 01:02:20;;;;;;;7.43;1.92;;;19.40;35.80;;;;;;5075163;28;20468;-81
2022/01/31 01:04:45;;;;;;;3.67;1.25;;;19.50;35.70;;;;;;5075455;28;20491;-82
2022/01/31 01:07:11;;;;;;;5.68;1.20;;;19.40;35.70;;;;;;5093361;28;20067;-82
2022/01/31 01:09:37;;;;;;;2.92;0.93;;;19.50;35.70;;;;;;5075333;28;20075;-83
2022/01/31 01:12:04;;;;;;;4.45;1.35;;;19.50;35.70;;;;;;5092559;28;20090;-83
2022/01/31 01:14:30;;;;;;;3.40;1.30;;;19.50;35.70;;;;;;5075074;28;20044;-83
2022/01/31 01:16:56;;;;;;;4.82;1.10;;;19.60;35.60;;;;;;5060405;28;20036;-83
2022/01/31 01:19:22;;;;;;;4.65;1.35;;;19.60;35.60;;;;;;5038864;28;20120;-82
2022/01/31 01:21:48;;;;;;;5.10;1.00;;;19.60;35.50;;;;;;5054914;28;20071;-82
2022/01/31 01:24:15;;;;;;;5.85;1.52;;;19.60;35.50;;;;;;5073121;28;20114;-82
2022/01/31 01:26:41;;;;;;;5.32;2.25;;;19.60;35.50;;;;;;5054857;28;20115;-82
2022/01/31 01:29:07;;;;;;;5.40;1.02;;;19.70;35.50;;;;;;5072782;28;20048;-81
2022/01/31 01:31:33;;;;;;;4.20;1.15;;;19.70;35.40;;;;;;5054661;28;20123;-82
2022/01/31 01:33:59;;;;;;;4.97;1.08;;;19.70;35.40;;;;;;5054670;28;20080;-81
2022/01/31 01:36:28;;;;;;;4.50;1.23;;;19.70;35.40;;;;;;5054919;28;20396;-78
2022/01/31 01:38:54;;;;;;;2.95;0.90;;;19.80;35.40;;;;;;5054974;28;20059;-78
2022/01/31 01:41:20;;;;;;;4.88;1.13;;;19.80;35.30;;;;;;5054444;28;20066;-78
2022/01/31 01:43:45;;;;;;;4.22;0.77;;;19.80;36.10;;;;;;5054155;28;20060;-77
2022/01/31 01:46:11;;;;;;;5.20;1.20;;;19.80;35.30;;;;;;5054522;28;20051;-77
2022/01/31 01:48:37;;;;;;;4.88;1.20;;;19.80;35.30;;;;;;5072291;28;20037;-76
2022/01/31 01:51:03;;;;;;;4.15;1.17;;;19.80;35.30;;;;;;5053905;28;20059;-76
2022/01/31 01:53:30;;;;;;;3.47;1.10;;;19.80;35.30;;;;;;5054480;28;20082;-75
2022/01/31 01:55:56;;;;;;;3.97;1.10;;;19.90;35.30;;;;;;5072565;28;20121;-75
2022/01/31 01:58:24;;;;;;;3.83;1.20;;;19.90;35.30;;;;;;5054290;28;20464;-75
2022/01/31 02:00:59;;;;;;;3.58;0.98;;;19.90;35.30;;;;;;5054138;28;20480;-76
2022/01/31 02:03:27;;;;;;;5.28;1.05;;;19.90;35.20;;;;;;5054175;28;20070;-75
2022/01/31 02:05:54;;;;;;;3.30;1.05;;;20.00;35.30;;;;;;5072422;28;20064;-74
2022/01/31 02:08:23;;;;;;;2.72;0.65;;;20.00;36.00;;;;;;5072008;28;20115;-75
2022/01/31 02:10:50;;;;;;;2.92;0.80;;;20.00;35.10;;;;;;5054385;28;20045;-75
2022/01/31 02:13:17;;;;;;;2.47;1.10;;;20.00;35.10;;;;;;5053498;28;20087;-74
2022/01/31 02:15:46;;;;;;;4.28;1.02;;;20.10;35.20;;;;;;5071714;28;20090;-75
2022/01/31 02:18:13;;;;;;;3.80;1.10;;;20.00;35.10;;;;;;5054151;28;20036;-73
2022/01/31 02:20:40;;;;;;;3.58;0.93;;;20.10;35.20;;;;;;5071852;28;20032;-74
2022/01/31 02:23:08;;;;;;;4.97;1.35;;;20.00;35.10;;;;;;5054433;28;20040;-74
2022/01/31 02:25:50;;;;;;;3.53;1.05;;;20.10;35.10;;;;;;5053868;28;20040;-73
2022/01/31 02:28:15;;;;;;;3.38;1.00;;;20.10;35.10;;;;;;5053840;28;20040;-74
2022/01/31 02:30:41;;;;;;;2.75;1.00;;;20.10;35.10;;;;;;5053874;28;20400;-73
2022/01/31 02:33:07;;;;;;;3.25;0.98;;;20.10;35.10;;;;;;5053830;28;20048;-73
2022/01/31 02:35:34;;;;;;;3.33;0.82;;;20.10;35.10;;;;;;5054076;28;20039;-74
2022/01/31 02:38:00;;;;;;;3.88;0.88;;;20.10;35.10;;;;;;5091424;28;20036;-73
2022/01/31 02:40:30;;;;;;;3.67;1.02;;;20.20;35.20;;;;;;5073974;28;20039;-72
2022/01/31 02:42:55;;;;;;;2.38;1.30;;;20.10;35.10;;;;;;5073008;28;20448;-72
2022/01/31 02:45:21;;;;;;;3.45;0.80;;;20.10;35.20;;;;;;5092014;28;20123;-73
2022/01/31 02:47:54;;;;;;;2.35;0.55;;;20.10;35.20;;;;;;5073241;28;20104;-73
2022/01/31 02:50:21;;;;;;;4.20;1.00;;;20.20;35.20;;;;;;5091736;28;20048;-72
2022/01/31 02:52:50;;;;;;;2.22;0.68;;;20.20;35.10;;;;;;5073641;28;20032;-73
2022/01/31 02:55:16;;;;;;;2.50;1.00;;;20.20;35.10;;;;;;5073806;28;20194;-72
2022/01/31 02:57:42;;;;;;;2.10;0.60;;;20.20;35.10;;;;;;5091651;28;20036;-73
2022/01/31 03:00:10;;;;;;;1.90;0.57;;;20.20;35.20;;;;;;5091923;28;20077;-71
2022/01/31 03:02:36;;;;;;;2.38;0.70;;;20.20;35.10;;;;;;5074613;28;20097;-72
2022/01/31 03:05:03;;;;;;;2.55;0.60;;;20.30;35.20;;;;;;5077759;28;20050;-72
2022/01/31 03:07:30;;;;;;;2.30;0.63;;;20.20;35.10;;;;;;5077490;28;20043;-73
2022/01/31 03:09:56;;;;;;;2.72;0.55;;;20.20;35.20;;;;;;5095684;28;20032;-72
2022/01/31 03:12:22;;;;;;;2.08;0.50;;;20.20;35.20;;;;;;5077500;28;20062;-72
2022/01/31 03:14:48;;;;;;;3.45;0.52;;;20.20;35.20;;;;;;5077214;28;20547;-72
2022/01/31 03:17:14;;;;;;;2.78;0.77;;;20.30;35.20;;;;;;5077270;28;20131;-72
2022/01/31 03:19:42;;;;;;;1.08;0.38;;;20.30;35.20;;;;;;5077465;28;20074;-72
2022/01/31 03:22:08;;;;;;;2.65;0.63;;;20.30;35.20;;;;;;5077249;28;20036;-72
2022/01/31 03:24:35;;;;;;;1.88;0.88;;;20.40;35.20;;;;;;5077154;28;20040;-72
2022/01/31 03:27:01;;;;;;;1.40;0.30;;;20.40;35.20;;;;;;5077082;28;20036;-72
2022/01/31 03:29:30;;;;;;;2.17;0.50;;;20.40;35.20;;;;;;5077187;28;20036;-72
2022/01/31 03:31:56;;;;;;;2.42;0.52;;;20.40;35.10;;;;;;5077012;28;20127;-72
2022/01/31 03:34:22;;;;;;;2.25;0.45;;;20.50;35.10;;;;;;5095350;28;20498;-72
2022/01/31 03:36:47;;;;;;;1.23;0.30;;;20.50;35.10;;;;;;5076939;28;20446;-72
2022/01/31 03:39:13;;;;;;;1.90;0.50;;;20.50;35.10;;;;;;5076990;28;20044;-72
2022/01/31 03:41:38;;;;;;;2.20;0.38;;;20.50;35.10;;;;;;5076834;28;20058;-74
2022/01/31 03:44:04;;;;;;;1.02;0.30;;;20.60;35.20;;;;;;5076563;28;20056;-72
2022/01/31 03:46:31;;;;;;;1.08;0.40;;;20.50;35.20;;;;;;5094878;28;20040;-73
2022/01/31 03:48:57;;;;;;;2.50;0.50;;;20.50;35.90;;;;;;5077058;28;20040;-73
2022/01/31 03:51:23;;;;;;;1.48;0.50;;;20.50;35.20;;;;;;5095139;28;20403;-72
2022/01/31 03:53:48;;;;;;;2.20;0.60;;;20.40;35.30;;;;;;5076913;28;20369;-72
2022/01/31 03:56:14;;;;;;;1.80;0.40;;;20.40;35.30;;;;;;5076617;28;20135;-73
2022/01/31 03:58:40;;;;;;;1.65;0.35;;;20.40;35.40;;;;;;5060123;28;20059;-72
2022/01/31 04:01:06;;;;;;;1.05;0.40;;;20.40;35.90;;;;;;5076505;28;20052;-73
2022/01/31 04:03:31;;;;;;;1.88;0.30;;;20.30;35.50;;;;;;5076357;28;20063;-72
2022/01/31 04:05:57;;;;;;;2.20;0.47;;;20.30;35.60;;;;;;5076522;28;20044;-72
2022/01/31 04:08:23;;;;;;;1.33;0.30;;;20.30;35.70;;;;;;5094621;28;20047;-73
2022/01/31 04:10:48;;;;;;;2.17;0.30;;;20.30;35.80;;;;;;5076729;28;20040;-72
2022/01/31 04:13:16;;;;;;;2.00;0.40;;;20.30;35.90;;;;;;5075675;28;20480;-72
2022/01/31 04:15:43;;;;;;;1.58;0.60;;;20.30;35.90;;;;;;5076218;28;20499;-72
2022/01/31 04:18:09;;;;;;;1.23;0.30;;;20.30;35.90;;;;;;5076412;28;20054;-72
2022/01/31 04:20:34;;;;;;;1.88;0.35;;;20.30;35.90;;;;;;5076180;28;20036;-72
2022/01/31 04:23:07;;;;;;;1.55;0.40;;;20.30;35.90;;;;;;5076402;28;20088;-73
2022/01/31 04:28:23;;;;;;;2.08;0.40;;;20.40;35.90;;;;;;5075839;28;20052;-72
2022/01/31 04:30:54;;;;;;;;;;;20.40;35.80;;;;;;5076532;28;20074;-73
2022/01/31 04:33:24;;;;;;;1.77;0.40;;;20.50;35.80;;;;;;5075929;28;19938;-73
2022/01/31 04:35:51;;;;;;;1.90;0.38;;;20.60;35.90;;;;;;5076164;28;20055;-72
2022/01/31 04:38:17;;;;;;;2.58;0.30;;;20.50;35.80;;;;;;5075895;28;20078;-72
2022/01/31 04:40:43;;;;;;;2.15;0.40;;;20.60;35.80;;;;;;5076013;28;20044;-72
2022/01/31 04:43:09;;;;;;;3.63;0.47;;;20.50;35.80;;;;;;5075638;28;20146;-72
2022/01/31 04:45:35;;;;;;;2.28;0.40;;;20.60;36.60;;;;;;5074476;28;20105;-72
2022/01/31 04:48:01;;;;;;;1.80;0.40;;;20.50;35.80;;;;;;5073660;28;20083;-72
2022/01/31 04:50:26;;;;;;;2.88;0.52;;;20.50;35.80;;;;;;5055708;28;20045;-72
2022/01/31 04:52:52;;;;;;;1.52;0.22;;;20.50;35.80;;;;;;5055775;28;20044;-73
2022/01/31 04:55:17;;;;;;;1.63;0.30;;;20.50;35.80;;;;;;5055402;28;20127;-73
2022/01/31 04:57:43;;;;;;;2.83;0.43;;;20.50;35.90;;;;;;5055502;28;20036;-73
2022/01/31 05:00:10;;;;;;;1.83;0.65;;;20.50;35.90;;;;;;5073622;28;20090;-73
2022/01/31 05:02:36;;;;;;;3.38;0.75;;;20.50;35.90;;;;;;5055286;28;20036;-72
2022/01/31 05:05:03;;;;;;;1.63;0.50;;;20.50;35.90;;;;;;5055747;28;20040;-72
2022/01/31 05:07:29;;;;;;;2.47;0.40;;;20.50;35.90;;;;;;5073351;28;20066;-73
2022/01/31 05:09:55;;;;;;;2.92;0.60;;;20.50;35.90;;;;;;5055348;28;20036;-72
2022/01/31 05:12:21;;;;;;;1.75;0.30;;;20.50;35.90;;;;;;5072650;28;20361;-73
2022/01/31 05:14:46;;;;;;;1.20;0.50;;;20.60;35.90;;;;;;5055255;28;20051;-73
2022/01/31 05:17:12;;;;;;;3.30;0.45;;;20.70;36.00;;;;;;5055439;28;20400;-72
2022/01/31 05:19:40;;;;;;;2.80;0.50;;;20.60;35.90;;;;;;5055174;28;20048;-72
2022/01/31 05:22:06;;;;;;;1.98;0.40;;;20.70;35.90;;;;;;5038446;28;20530;-72
2022/01/31 05:24:31;;;;;;;3.17;0.65;;;20.60;35.80;;;;;;5072308;28;20048;-73
2022/01/31 05:26:57;;;;;;;2.30;0.65;;;20.60;35.80;;;;;;5054917;28;20044;-73
2022/01/31 05:29:23;;;;;;;3.65;0.57;;;20.70;35.80;;;;;;5072912;28;20174;-72
2022/01/31 05:31:49;;;;;;;2.53;0.43;;;20.70;35.80;;;;;;5055002;28;20443;-72
2022/01/31 05:34:15;;;;;;;3.25;0.57;;;20.70;35.80;;;;;;5054661;28;20404;-73
2022/01/31 05:36:42;;;;;;;2.40;0.45;;;20.70;35.70;;;;;;5054464;28;20411;-72
2022/01/31 05:39:07;;;;;;;2.95;0.30;;;20.80;35.70;;;;;;5054797;28;20055;-73
2022/01/31 05:41:33;;;;;;;2.70;0.55;;;20.70;35.70;;;;;;5072394;28;20392;-71
2022/01/31 05:43:59;;;;;;;2.33;0.63;;;20.70;35.70;;;;;;5072263;28;20053;-72
2022/01/31 05:46:25;;;;;;;2.22;0.40;;;20.70;35.60;;;;;;5054697;28;20040;-72
2022/01/31 05:48:51;;;;;;;1.73;0.30;;;20.80;35.80;;;;;;5060594;28;20028;-72
2022/01/31 05:51:21;;;;;;;2.17;0.50;;;20.80;35.70;;;;;;5074564;28;20126;-72
2022/01/31 05:53:50;;;;;;;3.08;0.30;;;20.70;35.60;;;;;;5073992;28;20052;-72
2022/01/31 05:56:17;;;;;;;3.00;0.50;;;20.70;35.70;;;;;;5092872;28;20455;-72
2022/01/31 05:58:45;;;;;;;1.75;0.35;;;20.70;35.70;;;;;;5092749;28;20048;-72
2022/01/31 06:01:11;;;;;;;3.05;0.30;;;20.70;35.70;;;;;;5092383;28;20040;-72
2022/01/31 06:03:38;;;;;;;2.42;0.38;;;20.70;35.70;;;;;;5074565;28;20040;-72
2022/01/31 06:06:04;;;;;;;2.30;0.32;;;20.70;35.70;;;;;;5057676;28;20040;-72
2022/01/31 06:08:33;;;;;;;2.35;0.30;;;20.70;36.50;;;;;;5073705;28;20036;-71
2022/01/31 06:10:59;;;;;;;2.15;0.30;;;20.70;35.70;;;;;;5092276;28;20065;-72
2022/01/31 06:13:29;;;;;;;1.73;0.45;;;20.70;35.80;;;;;;5069659;28;20044;-67
2022/01/31 06:15:55;;;;;;;2.67;0.40;;;20.70;35.70;;;;;;5064689;28;20442;-67
2022/01/31 06:18:20;;;;;;;2.13;0.30;;;20.60;35.50;;;;;;5064060;28;20044;-68
2022/01/31 06:20:46;;;;;;;2.05;0.65;;;20.60;35.60;;;;;;5080689;28;20059;-68
2022/01/31 06:23:12;;;;;;;3.45;0.40;;;20.60;35.80;;;;;;5075777;28;20068;-67
2022/01/31 06:25:38;;;;;;;2.95;0.38;;;20.50;35.80;;;;;;5069342;28;20040;-68
2022/01/31 06:28:06;;;;;;;1.58;0.30;;;20.50;35.90;;;;;;5070879;28;20028;-69
2022/01/31 06:30:31;;;;;;;2.85;0.50;;;20.50;36.10;;;;;;5071578;28;20065;-67
2022/01/31 06:32:57;;;;;;;4.22;0.40;;;20.50;36.10;;;;;;5072275;28;20580;-67
2022/01/31 06:35:24;;;;;;;2.85;0.65;;;20.50;36.20;;;;;;5090590;28;20067;-66
2022/01/31 06:37:49;;;;;;;5.78;0.65;;;20.50;36.10;;;;;;5079559;28;20038;-66
2022/01/31 06:40:15;;;;;;;3.92;0.47;;;20.60;36.10;;;;;;5081423;28;20111;-65
2022/01/31 06:42:41;;;;;;;5.10;0.60;;;20.60;36.10;;;;;;5068425;28;20206;-66
2022/01/31 06:45:07;;;;;;;3.97;0.63;;;20.50;36.10;;;;;;5054809;28;20044;-66
2022/01/31 06:47:33;;;;;;;4.68;0.47;;;20.50;36.20;;;;;;5084943;28;20118;-67
2022/01/31 06:49:59;;;;;;;1.42;0.30;;;20.40;36.30;;;;;;5079953;28;20155;-66
2022/01/31 06:52:27;;;;;;;1.70;0.32;;;20.40;36.40;;;;;;5087075;28;20051;-66
2022/01/31 06:54:54;;;;;;;4.72;0.52;;;20.30;36.50;;;;;;5083769;28;20043;-66
2022/01/31 06:57:23;;;;;;;3.75;0.52;;;20.20;36.70;;;;;;5068383;28;20051;-66
2022/01/31 06:59:49;;;;;;;3.90;0.63;;;20.10;36.70;;;;;;5065039;28;20131;-67
2022/01/31 07:02:15;;;;;;;4.18;0.50;;;20.00;36.80;;;;;;5058832;28;20050;-66
2022/01/31 07:04:40;;;;;;;4.95;0.60;;;19.80;36.90;;;;;;5064654;28;20139;-66
2022/01/31 07:07:06;;;;;;;5.18;0.57;;;19.70;37.30;;;;;;5074113;28;20273;-66
2022/01/31 07:09:35;;;;;;;4.15;0.57;;;19.60;37.70;;;;;;5080040;28;20028;-66
2022/01/31 07:12:03;;;;;;;1.58;0.25;;;19.50;38.10;;;;;;5066613;28;20449;-66
2022/01/31 07:14:32;;;;;;;3.80;0.50;;;19.40;38.70;;;;;;5060528;28;20591;-66
2022/01/31 07:17:00;;;;;;;1.67;0.20;;;19.30;39.10;;;;;;5066392;28;20047;-65
2022/01/31 07:19:29;;;;;;;3.63;0.55;;;19.10;39.50;;;;;;5066987;28;20105;-66
2022/01/31 07:21:55;;;;;;;4.22;0.32;;;19.00;39.80;;;;;;5086004;28;20076;-65
2022/01/31 07:24:26;;;;;;;1.58;0.47;;;18.90;40.20;;;;;;5050785;28;20071;-65
2022/01/31 07:26:52;;;;;;;3.67;0.68;;;18.80;40.30;;;;;;5052224;28;20518;-66
2022/01/31 07:29:19;;;;;;;2.38;0.30;;;18.70;40.20;;;;;;5051780;28;20070;-66
2022/01/31 07:31:46;;;;;;;5.30;0.30;;;18.50;40.10;;;;;;5061327;28;20093;-66
2022/01/31 07:34:14;;;;;;;2.45;0.35;;;18.40;40.30;;;;;;5069405;28;20164;-65
2022/01/31 07:36:41;;;;;;;2.97;0.40;;;18.30;40.60;;;;;;5065669;28;20033;-66
2022/01/31 07:39:06;;;;;;;1.75;0.50;;;18.20;40.80;;;;;;5073908;28;20044;-65
2022/01/31 07:41:32;;;;;;;2.42;0.50;;;18.00;41.20;;;;;;5045719;28;20050;-65
2022/01/31 07:43:58;;;;;;;3.08;0.40;;;17.90;41.70;;;;;;5066459;28;20404;-65
2022/01/31 07:46:24;;;;;;;2.53;0.50;;;17.80;42.10;;;;;;5062124;28;20044;-66
2022/01/31 07:48:54;;;;;;;3.33;0.40;;;17.70;42.30;;;;;;5066829;28;20055;-65
2022/01/31 07:51:21;;;;;;;2.10;0.38;;;17.70;42.60;;;;;;5052706;28;20242;-67
2022/01/31 07:53:46;;;;;;;2.97;0.50;;;17.60;43.30;;;;;;5074094;28;20036;-64
2022/01/31 07:56:14;;;;;;;4.53;0.30;;;17.60;43.80;;;;;;5076557;28;20082;-65
2022/01/31 07:58:43;;;;;;;3.75;0.30;;;17.50;44.10;;;;;;5075814;28;20138;-67
2022/01/31 08:01:09;;;;;;;1.98;0.40;;;17.60;44.70;;;;;;5076682;28;20040;-65
2022/01/31 08:03:36;;;;;;;2.40;0.45;;;17.50;44.90;;;;;;5064733;28;20040;-64
2022/01/31 08:06:02;;;;;;;2.60;0.30;;;17.50;45.10;;;;;;5074304;28;20365;-64
2022/01/31 08:08:29;;;;;;;3.08;0.40;;;17.50;45.30;;;;;;5060971;28;20403;-64
2022/01/31 08:10:57;;;;;;;5.70;0.35;;;17.50;45.50;;;;;;5073832;28;20041;-64
2022/01/31 08:13:25;;;;;;;2.00;0.55;;;17.50;45.50;;;;;;5072033;28;20054;-64
2022/01/31 08:16:22;;;;;;;1.10;0.20;;;17.50;45.60;;;;;;5071010;28;20048;-65
2022/01/31 08:18:39;;;;;;;3.15;0.30;;;17.40;45.80;;;;;;5074772;28;20052;-65
2022/01/31 08:21:06;;;;;;;1.92;0.22;;;17.40;46.00;;;;;;5074037;28;20033;-64
2022/01/31 08:23:33;;;;;;;1.67;0.30;;;17.40;46.30;;;;;;5070336;28;20133;-68
2022/01/31 08:26:01;;;;;;;5.32;0.40;;;17.40;46.40;;;;;;5056047;28;20040;-63
2022/01/31 08:28:41;;;;;;;1.98;0.20;;;17.40;46.20;;;;;;5072380;28;20048;-63
2022/01/31 08:31:14;;;;;;;2.35;0.20;;;17.30;46.40;;;;;;5071447;28;20043;-61
2022/01/31 08:36:30;;;;;;;3.42;0.20;;;17.30;46.70;;;;;;5053944;28;20044;-67
2022/01/31 08:38:56;;;;;;;2.05;0.30;;;17.30;46.80;;;;;;5059381;28;20036;-66
2022/01/31 08:41:23;;;;;;;2.17;0.20;;;17.30;47.00;;;;;;5073101;28;20136;-63
2022/01/31 08:43:49;;;;;;;1.75;0.20;;;17.30;47.20;;;;;;5071626;28;20048;-68
2022/01/31 08:46:15;;;;;;;2.20;0.40;;;17.20;47.30;;;;;;5073197;28;20048;-64
2022/01/31 08:48:41;;;;;;;1.70;0.25;;;17.20;47.30;;;;;;5075534;28;20101;-69
2022/01/31 08:51:10;;;;;;;2.53;0.20;;;17.20;47.40;;;;;;5056225;28;20123;-68
2022/01/31 08:53:36;;;;;;;1.52;0.30;;;17.20;47.50;;;;;;5043734;28;20040;-70
2022/01/31 08:56:05;;;;;;;1.88;0.30;;;17.20;47.60;;;;;;5074187;28;20103;-68
2022/01/31 08:58:33;;;;;;;3.55;0.43;;;17.20;47.90;;;;;;5051045;28;20037;-66
2022/01/31 09:01:01;;;;;;;2.78;0.45;;;17.20;47.90;;;;;;5068553;28;20029;-69
2022/01/31 09:03:43;;;;;;;4.25;0.30;;;17.20;48.40;;;;;;5054710;28;20040;-67
2022/01/31 09:06:11;;;;;;;1.83;0.30;;;17.10;48.40;;;;;;5069162;28;20086;-71
2022/01/31 09:08:38;;;;;;;3.20;0.73;;;17.10;48.40;;;;;;5072831;28;20117;-64
2022/01/31 09:11:04;;;;;;;1.75;0.40;;;17.20;48.50;;;;;;5053468;28;20101;-73
2022/01/31 09:13:30;;;;;;;2.55;0.43;;;17.20;48.50;;;;;;5053795;28;20048;-69
2022/01/31 09:15:57;;;;;;;4.15;0.30;;;17.10;48.40;;;;;;5050730;28;20043;-71
2022/01/31 09:18:23;;;;;;;3.15;0.30;;;17.10;48.50;;;;;;5070855;28;20093;-71
2022/01/31 09:20:49;;;;;;;3.20;0.55;;;17.10;48.60;;;;;;5054931;28;20036;-72
2022/01/31 09:23:14;;;;;;;2.85;0.40;;;17.10;48.90;;;;;;5068310;28;20036;-71
2022/01/31 09:25:45;;;;;;;4.15;0.30;;;17.10;48.70;;;;;;5056491;28;20903;-73
2022/01/31 09:28:11;;;;;;;4.72;0.50;;;17.10;48.50;;;;;;5057427;28;20475;-72
2022/01/31 09:30:39;;;;;;;4.80;0.50;;;17.00;48.20;;;;;;5060950;28;20037;-72
2022/01/31 09:33:05;;;;;;;1.85;0.35;;;17.00;47.80;;;;;;5072408;28;20423;-72
2022/01/31 09:35:30;;;;;;;2.65;0.30;;;16.90;47.50;;;;;;5052302;28;20071;-74
2022/01/31 09:37:56;;;;;;;2.72;0.57;;;17.00;47.50;;;;;;5054127;28;20637;-72
2022/01/31 09:40:23;;;;;;;2.80;0.30;;;17.00;47.50;;;;;;5052879;28;20055;-72
2022/01/31 09:46:04;;;;;;;4.57;0.65;;;16.90;46.90;;;;;;5103483;27;20560;-69
2022/01/31 09:53:56;;;;;;;3.95;0.63;;;16.90;47.00;;;;;;5107837;27;20857;-68
2022/01/31 09:56:25;;;;;;;1.80;0.30;;;17.00;47.10;;;;;;5098449;28;20139;-71
2022/01/31 09:58:52;;;;;;;2.40;0.50;;;17.10;47.10;;;;;;5099957;28;20482;-72
2022/01/31 10:01:21;;;;;;;2.30;0.30;;;17.20;47.00;;;;;;5087607;28;20040;-71
2022/01/31 10:03:56;;;;;;;2.70;0.50;;;17.30;46.80;;;;;;5092643;28;20523;-70
2022/01/31 10:06:27;;;;;;;2.42;0.30;;;17.40;46.80;;;;;;5092704;28;20654;-77
2022/01/31 10:11:51;;;;;;;1.80;0.28;;;17.50;46.50;;;;;;5087819;27;20468;-73
2022/01/31 10:20:00;;;;;;;3.15;0.20;;;17.60;46.30;;;;;;5109950;27;1858678;-73
2022/01/31 10:22:29;;;;;;;2.03;0.30;;;17.60;46.40;;;;;;5142610;27;20053;-73
2022/01/31 10:25:02;;;;;;;3.72;0.32;;;17.50;46.30;;;;;;5144616;27;20474;-73
2022/01/31 10:27:33;;;;;;;7.15;0.40;;;17.50;46.30;;;;;;5141812;27;20047;-73
2022/01/31 10:30:20;;;;;;;2.97;0.28;;;17.40;46.30;;;;;;5144924;27;20042;-73
2022/01/31 10:32:48;;;;;;;2.45;0.35;;;17.40;46.50;;;;;;5142641;27;20050;-74
2022/01/31 10:38:06;;;;;;;3.22;0.63;;;17.30;46.40;;;;;;5078519;27;20414;-72
2022/01/31 10:57:21;;;;;;;2.42;0.32;;;17.40;46.70;;;;;;5069786;27;20438;-74
2022/01/31 10:59:49;;;;;;;2.45;0.22;;;17.40;46.60;;;;;;5061863;28;20056;-71
2022/01/31 11:02:18;;;;;;;5.13;0.20;;;17.40;46.60;;;;;;5047940;28;20033;-73
2022/01/31 11:04:45;;;;;;;2.67;0.50;;;17.50;47.00;;;;;;5069797;28;20057;-71
2022/01/31 11:07:15;;;;;;;4.85;0.30;;;17.40;47.30;;;;;;5068361;28;20396;-71
2022/01/31 11:09:42;;;;;;;2.58;0.30;;;17.40;46.50;;;;;;5069934;28;20055;-71
2022/01/31 11:12:10;;;;;;;2.30;0.32;;;17.40;45.80;;;;;;5067545;28;20821;-67
2022/01/31 11:14:38;;;;;;;2.97;0.20;;;17.30;45.70;;;;;;5054180;28;20040;-76
2022/01/31 11:17:10;;;;;;;5.10;0.30;;;17.30;45.80;;;;;;5070003;28;20040;-73
2022/01/31 11:19:36;;;;;;;2.42;0.38;;;17.30;45.80;;;;;;5073738;28;20580;-75
2022/01/31 11:22:07;;;;;;;4.45;0.65;;;17.30;45.90;;;;;;5069794;28;20044;-73
2022/01/31 11:24:44;;;;;;;5.07;0.43;;;17.30;46.00;;;;;;5070859;28;20059;-78
2022/01/31 11:29:55;;;;;;;5.80;0.50;;;17.40;46.30;;;;;;5068984;28;20447;-70
2022/01/31 11:32:22;;;;;;;6.90;0.75;;;17.30;45.90;;;;;;5060242;28;20515;-71
2022/01/31 11:34:48;;;;;;;4.50;0.73;;;17.30;45.90;;;;;;5056800;28;20040;-70
2022/01/31 11:37:16;;;;;;;4.40;0.60;;;17.30;46.10;;;;;;5053731;28;20036;-72
2022/01/31 11:39:51;;;;;;;2.65;0.45;;;17.30;46.20;;;;;;5049772;28;20045;-71
2022/01/31 11:42:18;;;;;;;6.72;0.68;;;17.40;46.50;;;;;;5050881;28;20757;-72
2022/01/31 11:44:50;;;;;;;6.00;1.75;;;17.40;46.40;;;;;;5071185;28;20048;-71
2022/01/31 11:47:21;;;;;;;2.78;0.50;;;17.40;46.20;;;;;;5074859;28;20105;-71
2022/01/31 11:49:52;;;;;;;4.20;0.50;;;17.40;46.00;;;;;;5056990;28;20484;-73
2022/01/31 11:52:19;;;;;;;4.13;0.50;;;17.40;46.10;;;;;;5058353;28;20064;-72
2022/01/31 11:54:47;;;;;;;3.28;0.35;;;17.40;46.20;;;;;;5051683;28;20040;-72
2022/01/31 11:57:16;;;;;;;6.43;1.00;;;17.40;46.10;;;;;;5054580;28;20064;-69
2022/01/31 11:59:42;;;;;;;1.80;0.50;;;17.40;46.10;;;;;;5069422;28;20140;-70
2022/01/31 12:02:13;;;;;;;4.80;0.82;;;17.40;46.10;;;;;;5074287;28;20182;-74
2022/01/31 12:04:44;;;;;;;8.75;0.50;;;17.30;46.10;;;;;;5063192;28;20040;-72
2022/01/31 12:07:39;;;;;;;3.03;0.55;;;17.40;46.30;;;;;;5057600;28;20085;-75
2022/01/31 12:10:09;;;;;;;6.95;0.68;;;17.30;46.60;;;;;;5074771;28;20029;-75
2022/01/31 12:13:01;;;;;;;4.82;0.40;;;17.30;46.70;;;;;;5063181;28;20070;-74
2022/01/31 12:23:51;;;;;;;3.42;0.47;;;17.40;47.30;;;;;;5152251;27;20118;-71
2022/01/31 12:29:22;;;;;;;3.80;0.50;;;17.40;47.70;;;;;;5130295;27;1165444;-71
2022/01/31 12:31:51;;;;;;;2.67;0.30;;;17.40;47.60;;;;;;5138394;27;20119;-68
2022/01/31 12:37:01;;;;;;;2.38;0.20;;;17.30;47.50;;;;;;5095033;27;20448;-73
2022/01/31 12:45:11;;;;;;;4.88;0.52;;;17.40;49.80;;;;;;5098841;27;20511;-81
2022/01/31 12:47:36;;;;;;;3.17;0.30;;;17.40;49.30;;;;;;5074051;28;20682;-82
2022/01/31 12:50:24;;;;;;;4.68;0.77;;;17.50;49.50;;;;;;5093467;28;20046;-76
2022/01/31 12:52:49;;;;;;;2.50;0.50;;;17.40;50.20;;;;;;5090127;28;20055;-75
2022/01/31 12:55:16;;;;;;;5.13;0.52;;;17.40;50.10;;;;;;5094232;28;20068;-74
2022/01/31 12:57:50;;;;;;;8.10;0.73;;;17.40;50.20;;;;;;5092766;28;20084;-75
2022/01/31 13:00:31;;;;;;;4.40;0.40;;;17.40;50.30;;;;;;5090528;28;20123;-77
2022/01/31 13:02:56;;;;;;;3.00;0.40;;;17.40;50.30;;;;;;5092661;28;20114;-83
2022/01/31 13:05:34;;;;;;;3.50;0.45;;;17.40;50.40;;;;;;5090985;28;20036;-68
2022/01/31 13:08:00;;;;;;;7.88;0.38;;;17.40;50.40;;;;;;5095244;28;20106;-70
2022/01/31 13:10:38;;;;;;;4.40;0.22;;;17.40;50.20;;;;;;5096685;28;20126;-69
2022/01/31 13:13:04;;;;;;;3.05;0.35;;;17.30;50.10;;;;;;5087184;28;20886;-71
2022/01/31 13:15:29;;;;;;;4.45;0.20;;;17.30;50.00;;;;;;5089531;28;20047;-74
2022/01/31 13:20:46;;;;;;;3.78;0.20;;;17.30;50.10;;;;;;5100247;27;20451;-73
2022/01/31 13:23:12;;;;;;;1.35;0.20;;;17.30;50.20;;;;;;5075819;28;20044;-71
2022/01/31 13:25:38;;;;;;;2.50;0.20;;;17.30;50.30;;;;;;5076165;28;20539;-72
2022/01/31 13:28:08;;;;;;;2.35;0.30;;;17.30;50.30;;;;;;5073152;28;20145;-69
2022/01/31 13:30:33;;;;;;;2.03;0.20;;;17.30;50.30;;;;;;5077849;28;20090;-72
2022/01/31 13:33:05;;;;;;;3.65;0.77;;;17.30;50.20;;;;;;5079078;28;20040;-72
2022/01/31 13:35:33;;;;;;;3.60;0.40;;;17.30;50.30;;;;;;5092153;28;20037;-71
2022/01/31 13:38:02;;;;;;;2.28;0.20;;;17.30;50.20;;;;;;5076477;28;20044;-71
2022/01/31 13:43:13;;;;;;;4.38;0.28;;;17.30;50.50;;;;;;5053517;28;20439;-71
2022/01/31 13:45:49;;;;;;;3.65;0.10;;;17.40;50.50;;;;;;5057132;28;20053;-71
2022/01/31 13:48:36;;;;;;;2.65;0.20;;;17.40;50.60;;;;;;5051874;28;20096;-73
2022/01/31 13:51:03;;;;;;;2.85;0.40;;;17.40;50.60;;;;;;5046473;28;20048;-71
2022/01/31 13:53:35;;;;;;;1.20;0.15;;;17.40;50.60;;;;;;5056118;28;20048;-71
2022/01/31 13:56:07;;;;;;;3.10;0.82;;;17.50;50.60;;;;;;5051777;28;20049;-71
2022/01/31 13:58:39;;;;;;;2.28;0.47;;;17.40;50.30;;;;;;5056085;28;20032;-71
2022/01/31 14:01:06;;;;;;;2.25;0.20;;;17.40;50.20;;;;;;5054221;28;20837;-71